Time;durP1;ratioP1;P1;durP2;ratioP2;P2;SDS_P1;SDS_P2;PMS_P1;PMS_P2;Temp;Humidity;BMP_temperature;BMP_pressure;BME280_temperature;BME280_humidity;BME280_pressure;Samples;Min_cycle;Max_cycle;Signal;HPM_P1;HPM_P2
2022/10/31 00:02:00;;;;;;;0.40;0.40;;;14.80;99.90;16.00;101819.00;;;;5015595;28;20215;-75
2022/10/31 00:04:52;;;;;;;0.30;0.30;;;14.80;99.90;15.60;101810.00;;;;4998525;28;20238;-75
2022/10/31 00:07:41;;;;;;;0.30;0.30;;;14.70;99.90;16.20;101790.00;;;;4986184;28;20638;-75
2022/10/31 00:10:13;;;;;;;0.30;0.30;;;14.70;99.90;15.80;101782.00;;;;5014845;28;20191;-76
2022/10/31 00:13:02;;;;;;;0.30;0.30;;;14.80;99.90;15.80;101781.00;;;;5015121;28;20269;-75
2022/10/31 00:15:40;;;;;;;0.30;0.30;;;14.70;99.90;16.40;101777.00;;;;5014449;28;20286;-76
2022/10/31 00:18:19;;;;;;;0.30;0.30;;;15.00;99.90;16.30;101781.00;;;;5015030;28;20176;-77
2022/10/31 00:21:08;;;;;;;0.60;0.60;;;14.90;99.90;16.30;101792.00;;;;5014272;28;20233;-77
2022/10/31 00:23:59;;;;;;;1.13;1.13;;;15.00;99.90;16.10;101799.00;;;;4998192;28;20190;-77
2022/10/31 00:26:34;;;;;;;0.30;0.30;;;14.80;99.90;15.60;101809.00;;;;5014476;28;20202;-77
2022/10/31 00:29:05;;;;;;;0.30;0.30;;;14.50;99.90;15.40;101801.00;;;;5014865;28;20172;-77
2022/10/31 00:31:38;;;;;;;0.30;0.30;;;14.30;99.90;15.40;101790.00;;;;5014043;28;20194;-76
2022/10/31 00:34:07;;;;;;;0.30;0.30;;;14.20;99.90;15.20;101814.00;;;;4997912;28;20643;-77
2022/10/31 00:36:54;;;;;;;0.30;0.30;;;14.10;99.90;15.50;101804.00;;;;5014244;28;20188;-77
2022/10/31 00:39:27;;;;;;;0.30;0.30;;;14.10;99.90;15.30;101800.00;;;;5014702;28;20186;-77
2022/10/31 00:42:01;;;;;;;0.50;0.50;;;14.00;99.90;15.30;101797.00;;;;5014166;28;20208;-77
2022/10/31 00:44:35;;;;;;;0.27;0.27;;;14.00;99.90;14.80;101795.00;;;;5013725;28;20186;-77
2022/10/31 00:47:27;;;;;;;0.30;0.30;;;13.80;99.90;14.60;101766.00;;;;5014061;28;20266;-77
2022/10/31 00:49:58;;;;;;;1.53;1.43;;;13.70;99.90;14.60;101804.00;;;;4997744;28;20240;-77
2022/10/31 00:52:32;;;;;;;0.40;0.40;;;13.70;99.90;14.50;101804.00;;;;5014350;28;20189;-78
2022/10/31 00:55:18;;;;;;;0.30;0.30;;;13.60;99.90;14.30;101823.00;;;;5032088;28;20197;-77
2022/10/31 00:57:59;;;;;;;1.40;1.30;;;13.50;99.90;14.50;101804.00;;;;5016372;28;20209;-78
2022/10/31 01:00:36;;;;;;;0.30;0.30;;;13.50;99.90;14.60;101809.00;;;;5033310;28;20184;-78
2022/10/31 01:03:17;;;;;;;0.93;0.93;;;13.50;99.90;14.50;101809.00;;;;5033240;28;20275;-78
2022/10/31 01:06:05;;;;;;;0.30;0.30;;;13.40;99.90;14.40;101812.00;;;;5033308;28;20259;-78
2022/10/31 01:09:12;;;;;;;0.30;0.30;;;13.40;99.90;14.20;101814.00;;;;5033405;28;20176;-78
2022/10/31 01:11:46;;;;;;;1.07;1.07;;;13.40;99.90;14.50;101758.00;;;;5032021;28;20354;-78
2022/10/31 01:14:17;;;;;;;0.40;0.40;;;13.40;99.90;14.40;101810.00;;;;5016576;28;20184;-78
2022/10/31 01:16:50;;;;;;;0.30;0.30;;;13.30;99.90;14.50;101825.00;;;;5033262;28;20184;-78
2022/10/31 01:19:19;;;;;;;0.30;0.30;;;13.40;99.90;14.10;101806.00;;;;5049405;28;20180;-78
2022/10/31 01:21:47;;;;;;;15.57;9.67;;;13.30;99.90;14.20;101823.00;;;;5033197;28;20214;-77
2022/10/31 01:24:19;;;;;;;0.30;0.30;;;13.20;99.90;14.50;101784.00;;;;5033174;28;20276;-77
2022/10/31 01:26:58;;;;;;;0.30;0.30;;;13.30;99.90;14.30;101772.00;;;;5033131;28;20239;-77
2022/10/31 01:29:56;;;;;;;0.70;0.70;;;13.30;99.90;14.10;101816.00;;;;5032888;28;20245;-77
2022/10/31 01:32:30;;;;;;;0.90;0.90;;;13.20;99.90;14.20;101787.00;;;;5031064;28;20290;-77
2022/10/31 01:35:06;;;;;;;0.50;0.50;;;13.20;99.90;14.30;101817.00;;;;5032899;28;20206;-77
2022/10/31 01:37:52;;;;;;;0.70;0.70;;;13.20;99.90;14.40;101811.00;;;;5033722;28;20184;-77
2022/10/31 01:40:41;;;;;;;0.60;0.60;;;13.30;99.90;14.40;101815.00;;;;5033136;28;20535;-77
2022/10/31 01:43:18;;;;;;;0.50;0.50;;;13.30;99.90;14.10;101820.00;;;;5033550;28;20284;-77
2022/10/31 01:46:15;;;;;;;0.50;0.50;;;13.20;99.90;14.00;101811.00;;;;5034117;28;20176;-77
2022/10/31 01:48:48;;;;;;;0.77;0.77;;;13.20;99.90;14.10;101773.00;;;;5032509;28;20253;-77
2022/10/31 01:51:29;;;;;;;0.30;0.30;;;13.20;99.90;14.00;101807.00;;;;5032795;28;20187;-77
2022/10/31 01:54:04;;;;;;;0.30;0.30;;;13.10;99.90;14.00;101795.00;;;;5032852;28;20201;-78
2022/10/31 01:56:41;;;;;;;0.40;0.40;;;13.10;99.90;14.20;101802.00;;;;5032439;28;20217;-77
2022/10/31 01:59:30;;;;;;;0.30;0.30;;;13.20;99.90;14.10;101795.00;;;;5032226;28;20242;-78
2022/10/31 02:02:04;;;;;;;0.40;0.40;;;13.20;99.90;14.20;101797.00;;;;5032340;28;20210;-78
2022/10/31 02:04:42;;;;;;;0.40;0.40;;;13.20;99.90;14.00;101805.00;;;;5032090;28;20528;-77
2022/10/31 02:07:18;;;;;;;0.30;0.30;;;13.20;99.90;14.10;101819.00;;;;5031873;28;20190;-78
2022/10/31 02:10:03;;;;;;;0.83;0.83;;;13.10;99.90;13.90;101820.00;;;;5032338;28;20194;-78
2022/10/31 02:12:58;;;;;;;0.30;0.30;;;13.10;99.90;14.00;101793.00;;;;5032833;28;20816;-78
2022/10/31 02:15:47;;;;;;;0.30;0.30;;;13.10;99.90;13.90;101769.00;;;;5032488;28;20183;-77
2022/10/31 02:18:33;;;;;;;0.50;0.50;;;13.10;99.90;13.70;101803.00;;;;5032543;28;20185;-78
2022/10/31 02:21:23;;;;;;;1.33;1.23;;;13.00;99.90;13.90;101739.00;;;;5032146;28;20503;-76
2022/10/31 02:24:33;;;;;;;0.30;0.30;;;13.00;99.90;13.90;101809.00;;;;5048732;28;20223;-75
2022/10/31 02:27:18;;;;;;;0.50;0.50;;;13.00;99.90;13.80;101799.00;;;;5031943;28;20258;-76
2022/10/31 02:30:05;;;;;;;0.30;0.30;;;12.90;99.90;14.40;101745.00;;;;5031878;28;20176;-75
2022/10/31 02:32:59;;;;;;;0.40;0.40;;;13.10;99.90;14.20;101791.00;;;;5031946;28;20198;-76
2022/10/31 02:35:50;;;;;;;0.40;0.40;;;13.10;99.90;14.20;101789.00;;;;5031775;28;20197;-76
2022/10/31 02:38:56;;;;;;;0.93;0.93;;;13.10;99.90;13.90;101789.00;;;;5031910;28;20180;-76
2022/10/31 02:41:44;;;;;;;1.03;1.03;;;12.90;99.90;13.60;101737.00;;;;5032108;28;20191;-76
2022/10/31 02:44:36;;;;;;;0.50;0.50;;;12.70;99.90;13.60;101797.00;;;;5033472;28;20186;-76
2022/10/31 02:47:34;;;;;;;0.30;0.30;;;12.70;99.90;13.70;101787.00;;;;5040905;28;20180;-76
2022/10/31 02:50:17;;;;;;;0.30;0.30;;;12.70;99.90;13.90;101786.00;;;;4999551;28;20291;-76
2022/10/31 02:52:52;;;;;;;0.73;0.70;;;12.70;99.90;13.80;101757.00;;;;5012482;28;20171;-76
2022/10/31 02:55:27;;;;;;;0.30;0.30;;;12.70;99.90;14.10;101765.00;;;;4995711;28;20241;-77
2022/10/31 02:58:17;;;;;;;0.30;0.30;;;12.80;99.90;13.80;101779.00;;;;5013722;28;20175;-77
2022/10/31 03:01:34;;;;;;;0.33;0.33;;;12.80;99.90;13.70;101764.00;;;;4995063;28;20226;-76
2022/10/31 03:04:39;;;;;;;0.30;0.30;;;12.70;99.90;13.50;101773.00;;;;5012258;28;20517;-76
2022/10/31 03:08:20;;;;;;;0.33;0.33;;;12.60;99.90;13.50;101769.00;;;;5028315;28;20541;-76
2022/10/31 03:11:04;;;;;;;3.90;3.70;;;12.50;99.90;13.60;101720.00;;;;5011012;28;20242;-75
2022/10/31 03:13:43;;;;;;;0.53;0.53;;;12.60;99.90;13.40;101775.00;;;;5012016;28;20535;-76
2022/10/31 03:16:46;;;;;;;0.40;0.40;;;12.50;99.90;13.70;101766.00;;;;5011980;28;20216;-75
2022/10/31 03:19:30;;;;;;;0.70;0.70;;;12.50;99.90;13.80;101765.00;;;;5014378;28;20187;-75
2022/10/31 03:22:20;;;;;;;1.07;1.07;;;12.60;99.90;13.80;101770.00;;;;5015297;28;20701;-76
2022/10/31 03:25:04;;;;;;;0.33;0.33;;;12.70;99.90;13.40;101700.00;;;;4998887;28;20188;-76
2022/10/31 03:27:53;;;;;;;2.07;2.00;;;12.60;99.90;13.40;101762.00;;;;5015599;28;20722;-76
2022/10/31 03:30:36;;;;;;;0.43;0.43;;;12.50;99.90;13.40;101766.00;;;;4998763;28;20632;-76
2022/10/31 03:33:17;;;;;;;0.30;0.30;;;12.40;99.90;13.20;101769.00;;;;4998855;28;20212;-76
2022/10/31 03:36:05;;;;;;;0.40;0.40;;;12.40;99.90;13.30;101753.00;;;;5015474;28;20190;-76
2022/10/31 03:38:44;;;;;;;0.30;0.30;;;12.40;99.90;13.20;101773.00;;;;5014934;28;20561;-76
2022/10/31 03:41:21;;;;;;;0.40;0.40;;;12.30;99.90;13.50;101757.00;;;;5015013;28;20188;-76
2022/10/31 03:44:08;;;;;;;0.40;0.40;;;12.30;99.90;13.90;101716.00;;;;5016497;28;20189;-75
2022/10/31 03:46:48;;;;;;;0.40;0.40;;;12.50;99.90;13.60;101757.00;;;;5015041;28;20187;-76
2022/10/31 03:49:23;;;;;;;0.40;0.40;;;12.50;99.90;13.30;101767.00;;;;5014812;28;20664;-76
2022/10/31 03:52:36;;;;;;;0.30;0.30;;;12.40;99.90;13.40;101766.00;;;;5015273;28;20168;-75
2022/10/31 03:55:32;;;;;;;0.30;0.30;;;12.30;99.90;13.20;101758.00;;;;5014716;28;20210;-76
2022/10/31 03:58:21;;;;;;;0.33;0.33;;;12.40;99.90;13.10;101749.00;;;;4998656;28;20197;-76
2022/10/31 04:01:00;;;;;;;0.30;0.30;;;12.20;99.90;12.90;101761.00;;;;5014966;28;20179;-76
2022/10/31 04:03:58;;;;;;;0.30;0.30;;;12.10;99.90;12.90;101753.00;;;;5014291;28;20225;-76
2022/10/31 04:06:31;;;;;;;0.30;0.30;;;12.20;99.90;13.00;101759.00;;;;5015260;28;20193;-76
2022/10/31 04:09:11;;;;;;;0.50;0.50;;;12.20;99.90;13.20;101764.00;;;;5014539;28;20198;-76
2022/10/31 04:11:50;;;;;;;0.30;0.30;;;12.20;99.90;13.30;101700.00;;;;4998496;28;20274;-76
2022/10/31 04:14:22;;;;;;;1.50;1.33;;;12.30;99.90;13.00;101761.00;;;;5014717;28;20653;-76
2022/10/31 04:16:54;;;;;;;0.30;0.30;;;12.30;99.90;13.00;101764.00;;;;4998593;28;20262;-76
2022/10/31 04:19:43;;;;;;;0.40;0.40;;;12.20;99.90;14.00;101754.00;;;;4998391;28;20189;-75
2022/10/31 04:22:18;;;;;;;0.40;0.40;;;12.40;99.90;14.40;101743.00;;;;4997541;28;20215;-76
2022/10/31 04:24:49;;;;;;;0.40;0.40;;;12.80;99.90;14.30;101733.00;;;;5014523;28;20183;-75
2022/10/31 04:27:15;;;;;;;0.40;0.40;;;12.90;99.90;14.20;101729.00;;;;5014422;28;20175;-76
2022/10/31 04:29:41;;;;;;;0.40;0.40;;;12.80;99.90;13.80;101730.00;;;;5014396;28;20184;-76
2022/10/31 04:32:07;;;;;;;0.40;0.40;;;12.70;99.90;13.80;101727.00;;;;5014150;28;20707;-76
2022/10/31 04:34:38;;;;;;;0.40;0.40;;;12.60;99.90;14.00;101724.00;;;;5015428;28;20176;-75
2022/10/31 04:37:09;;;;;;;0.60;0.60;;;12.60;99.90;13.90;101675.00;;;;5014046;28;20207;-76
2022/10/31 04:39:40;;;;;;;0.50;0.50;;;12.60;99.90;14.00;101707.00;;;;5014074;28;20191;-77
2022/10/31 04:42:14;;;;;;;0.40;0.40;;;12.60;99.90;13.40;101712.00;;;;5014440;28;20731;-77
2022/10/31 04:44:41;;;;;;;0.40;0.40;;;12.50;99.90;13.10;101714.00;;;;5065148;28;20674;-77
2022/10/31 04:47:09;;;;;;;0.40;0.40;;;12.30;99.90;13.70;101724.00;;;;5035122;28;20194;-77
2022/10/31 04:49:43;;;;;;;0.40;0.40;;;12.30;99.90;13.70;101717.00;;;;5066714;28;20217;-77
2022/10/31 04:52:17;;;;;;;1.03;1.03;;;12.40;99.90;13.70;101736.00;;;;5033849;28;20562;-77
2022/10/31 04:54:47;;;;;;;0.50;0.50;;;12.40;99.90;14.10;101722.00;;;;5065714;28;20201;-76
2022/10/31 04:57:18;;;;;;;0.43;0.43;;;12.60;99.90;13.90;101714.00;;;;5033869;28;20171;-77
2022/10/31 04:59:47;;;;;;;0.40;0.40;;;12.50;99.90;13.90;101692.00;;;;5033537;28;20628;-77
2022/10/31 05:02:13;;;;;;;0.40;0.40;;;12.50;99.90;13.80;101696.00;;;;5033309;28;20224;-77
2022/10/31 05:04:44;;;;;;;0.43;0.43;;;12.50;99.90;14.10;101697.00;;;;5049914;28;20183;-77
2022/10/31 05:07:16;;;;;;;0.47;0.47;;;12.60;99.90;14.30;101699.00;;;;5033318;28;20530;-77
2022/10/31 05:09:44;;;;;;;0.40;0.40;;;12.70;99.90;13.80;101702.00;;;;5034216;28;20186;-76
2022/10/31 05:12:15;;;;;;;0.40;0.40;;;12.60;99.90;13.50;101693.00;;;;5033252;28;20558;-75
2022/10/31 05:14:44;;;;;;;0.40;0.40;;;12.40;99.90;13.80;101697.00;;;;5034564;28;20172;-75
2022/10/31 05:17:15;;;;;;;0.40;0.40;;;12.30;99.90;13.90;101692.00;;;;5033843;28;20169;-75
2022/10/31 05:19:49;;;;;;;0.50;0.50;;;12.40;99.90;13.80;101664.00;;;;5033059;28;20642;-75
2022/10/31 05:22:20;;;;;;;0.60;0.60;;;12.40;99.90;13.90;101667.00;;;;5032951;28;20556;-75
2022/10/31 05:24:57;;;;;;;0.40;0.40;;;12.50;99.90;13.40;101690.00;;;;5032730;28;20186;-75
2022/10/31 05:27:31;;;;;;;0.50;0.50;;;12.40;99.90;13.80;101677.00;;;;5033350;28;20180;-76
2022/10/31 05:30:06;;;;;;;0.50;0.50;;;12.40;99.90;13.70;101692.00;;;;5034017;28;20203;-76
2022/10/31 05:32:48;;;;;;;0.50;0.50;;;12.40;99.90;13.90;101698.00;;;;5049441;28;20575;-76
2022/10/31 05:35:24;;;;;;;2.40;2.30;;;12.40;99.90;13.90;101689.00;;;;5032487;28;20211;-76
2022/10/31 05:37:57;;;;;;;0.50;0.50;;;12.50;99.90;13.40;101691.00;;;;5033188;28;20269;-75
2022/10/31 05:40:30;;;;;;;0.40;0.40;;;12.40;99.90;13.60;101695.00;;;;5034061;28;20680;-75
2022/10/31 05:43:07;;;;;;;0.40;0.40;;;12.20;99.90;13.90;101709.00;;;;5032364;28;20741;-75
2022/10/31 05:45:39;;;;;;;0.40;0.40;;;12.30;99.90;13.70;101702.00;;;;5032943;28;20603;-75
2022/10/31 05:48:05;;;;;;;1.70;1.57;;;12.30;99.90;13.80;101699.00;;;;5032494;28;20201;-75
2022/10/31 05:50:31;;;;;;;0.40;0.40;;;12.40;99.90;13.70;101698.00;;;;5032250;28;20178;-76
2022/10/31 05:53:08;;;;;;;1.03;1.00;;;12.40;99.90;13.90;101687.00;;;;5032622;28;20543;-75
2022/10/31 05:55:43;;;;;;;0.40;0.40;;;12.50;99.90;13.50;101699.00;;;;5032141;28;20182;-75
2022/10/31 05:58:15;;;;;;;0.43;0.43;;;12.30;99.90;13.30;101686.00;;;;5033553;28;20188;-75
2022/10/31 06:00:52;;;;;;;0.97;0.97;;;12.20;99.90;13.60;101639.00;;;;5033103;28;20192;-76
2022/10/31 06:03:28;;;;;;;0.40;0.40;;;12.20;99.90;13.80;101678.00;;;;5032321;28;20626;-76
2022/10/31 06:05:54;;;;;;;1.90;1.00;;;12.40;99.90;13.60;101686.00;;;;5032157;28;20221;-76
2022/10/31 06:08:29;;;;;;;0.40;0.40;;;12.40;99.90;13.50;101631.00;;;;5032722;28;20164;-76
2022/10/31 06:11:15;;;;;;;0.60;0.60;;;12.30;99.90;13.50;101701.00;;;;5032899;28;20190;-77
2022/10/31 06:13:41;;;;;;;0.40;0.40;;;12.30;99.90;13.20;101686.00;;;;5032824;28;20170;-77
2022/10/31 06:16:27;;;;;;;0.40;0.40;;;12.20;99.90;12.90;101666.00;;;;5033576;28;20266;-77
2022/10/31 06:19:11;;;;;;;1.20;1.20;;;12.00;99.90;12.90;101724.00;;;;5048578;28;20221;-76
2022/10/31 06:21:40;;;;;;;1.17;1.17;;;12.00;99.90;13.00;101718.00;;;;5032293;28;20200;-77
2022/10/31 06:24:14;;;;;;;0.40;0.40;;;12.00;99.90;13.30;101654.00;;;;5032914;28;20187;-77
2022/10/31 06:26:46;;;;;;;0.40;0.40;;;12.10;99.90;13.00;101652.00;;;;5032369;28;20602;-77
2022/10/31 06:29:20;;;;;;;0.40;0.40;;;12.10;99.90;13.50;101701.00;;;;5048668;28;20658;-77
2022/10/31 06:31:51;;;;;;;0.40;0.40;;;12.20;99.90;13.80;101700.00;;;;5031824;28;20196;-77
2022/10/31 06:34:22;;;;;;;0.40;0.40;;;12.40;99.90;14.00;101692.00;;;;5015354;28;20185;-76
2022/10/31 06:36:48;;;;;;;0.50;0.50;;;12.50;99.90;14.30;101699.00;;;;5033107;28;20163;-77
2022/10/31 06:39:22;;;;;;;0.50;0.50;;;12.80;99.90;14.50;101682.00;;;;5032569;28;20519;-76
2022/10/31 06:41:54;;;;;;;0.70;0.70;;;13.00;99.90;14.40;101681.00;;;;5015811;28;20567;-76
2022/10/31 06:44:22;;;;;;;0.60;0.60;;;13.00;99.90;14.50;101606.00;;;;5032126;28;20328;-76
2022/10/31 06:46:51;;;;;;;0.50;0.50;;;13.00;99.90;14.20;101688.00;;;;5031905;28;20190;-77
2022/10/31 06:49:20;;;;;;;2.17;2.10;;;12.90;99.90;13.80;101687.00;;;;5031967;28;20231;-77
2022/10/31 06:51:52;;;;;;;0.97;0.97;;;12.70;99.90;13.30;101649.00;;;;5032294;28;20187;-76
2022/10/31 06:54:29;;;;;;;0.40;0.40;;;12.50;99.90;13.30;101700.00;;;;5018056;28;20274;-76
2022/10/31 06:57:18;;;;;;;0.40;0.40;;;12.40;99.90;13.60;101701.00;;;;5035988;28;20183;-76
2022/10/31 06:59:53;;;;;;;2.60;2.50;;;12.50;99.90;14.10;101693.00;;;;5035535;28;20257;-76
2022/10/31 07:02:21;;;;;;;0.50;0.50;;;12.70;99.90;14.20;101690.00;;;;5036580;28;20229;-76
2022/10/31 07:04:50;;;;;;;0.40;0.40;;;12.80;99.90;14.40;101681.00;;;;5036936;28;20219;-76
2022/10/31 07:07:21;;;;;;;0.93;0.93;;;12.90;99.90;14.20;101670.00;;;;5035515;28;20630;-76
2022/10/31 07:09:57;;;;;;;1.77;1.67;;;13.00;99.90;14.50;101686.00;;;;5036762;28;20207;-75
2022/10/31 07:12:31;;;;;;;0.50;0.50;;;13.10;99.90;14.50;101695.00;;;;5018991;28;20544;-75
2022/10/31 07:15:05;;;;;;;0.50;0.50;;;13.10;99.90;14.40;101695.00;;;;5019525;28;20187;-75
2022/10/31 07:17:33;;;;;;;0.50;0.50;;;13.10;99.90;14.20;101701.00;;;;5035284;28;20193;-75
2022/10/31 07:20:06;;;;;;;0.40;0.40;;;13.10;99.90;14.40;101698.00;;;;5035266;28;20177;-77
2022/10/31 07:22:47;;;;;;;0.50;0.50;;;13.20;99.90;13.90;101656.00;;;;5019589;28;20581;-76
2022/10/31 07:25:22;;;;;;;0.40;0.40;;;13.10;99.90;13.60;101718.00;;;;5019182;28;20188;-75
2022/10/31 07:27:57;;;;;;;3.33;1.20;;;12.80;99.90;14.40;101681.00;;;;5035327;28;20168;-75
2022/10/31 07:30:25;;;;;;;0.80;0.80;;;13.10;99.90;14.80;101701.00;;;;5035370;28;20214;-76
2022/10/31 07:33:25;;;;;;;0.50;0.50;;;13.30;99.90;14.70;101681.00;;;;5034988;28;20196;-76
2022/10/31 07:35:59;;;;;;;1.50;1.50;;;13.50;99.90;14.40;101626.00;;;;5036323;28;20184;-76
2022/10/31 07:38:28;;;;;;;0.40;0.40;;;13.40;99.90;14.90;101695.00;;;;5035212;28;20167;-76
2022/10/31 07:41:18;;;;;;;0.50;0.50;;;13.50;99.90;15.30;101691.00;;;;5035379;28;20172;-76
2022/10/31 07:43:46;;;;;;;0.70;0.70;;;13.70;99.90;14.70;101665.00;;;;5034825;28;20183;-76
2022/10/31 07:46:17;;;;;;;0.50;0.50;;;13.70;99.90;14.70;101695.00;;;;5034679;28;20659;-76
2022/10/31 07:48:49;;;;;;;0.50;0.50;;;13.60;99.90;15.10;101658.00;;;;5034755;28;20181;-76
2022/10/31 07:51:23;;;;;;;0.50;0.50;;;13.70;99.90;15.20;101693.00;;;;5019431;28;20307;-77
2022/10/31 07:53:49;;;;;;;0.50;0.50;;;13.80;99.90;15.10;101701.00;;;;5035938;28;20655;-75
2022/10/31 07:56:24;;;;;;;0.50;0.50;;;13.80;99.90;15.30;101708.00;;;;5034767;28;20537;-76
2022/10/31 07:59:08;;;;;;;0.50;0.50;;;14.00;99.90;15.70;101712.00;;;;5034596;28;20160;-76
2022/10/31 08:01:56;;;;;;;0.50;0.50;;;14.10;99.90;15.20;101705.00;;;;5034398;28;20195;-76
2022/10/31 08:04:22;;;;;;;0.60;0.60;;;14.10;99.90;15.60;101641.00;;;;5017824;28;20183;-75
2022/10/31 08:06:54;;;;;;;0.83;0.83;;;14.30;99.90;15.30;101703.00;;;;5034978;28;20180;-76
2022/10/31 08:09:42;;;;;;;0.60;0.60;;;14.20;99.90;15.40;101656.00;;;;5017817;28;20223;-76
2022/10/31 08:12:08;;;;;;;18.67;13.60;;;14.20;99.90;15.50;101706.00;;;;5033812;28;20305;-76
2022/10/31 08:14:34;;;;;;;0.50;0.50;;;14.20;99.90;15.30;101713.00;;;;5034482;28;20266;-75
2022/10/31 08:17:03;;;;;;;0.53;0.53;;;14.20;99.90;15.50;101692.00;;;;5066554;28;20187;-76
2022/10/31 08:19:51;;;;;;;0.60;0.60;;;14.30;99.90;15.60;101660.00;;;;5031347;28;20253;-76
2022/10/31 08:22:39;;;;;;;6.00;5.50;;;14.40;99.90;14.50;101698.00;;;;5023849;28;20352;-76
2022/10/31 08:25:11;;;;;;;0.50;0.50;;;14.00;99.90;14.60;101691.00;;;;5031383;28;20232;-76
2022/10/31 08:27:40;;;;;;;0.67;0.67;;;13.80;99.90;14.50;101687.00;;;;5014970;28;20170;-76
2022/10/31 08:30:43;;;;;;;0.83;0.83;;;13.70;99.90;14.60;101654.00;;;;5015311;28;20187;-76
2022/10/31 08:33:16;;;;;;;0.40;0.40;;;13.80;99.90;14.30;101687.00;;;;5005974;28;20308;-76
2022/10/31 08:35:43;;;;;;;0.40;0.40;;;13.60;99.90;13.90;101634.00;;;;5014318;28;20195;-75
2022/10/31 08:38:12;;;;;;;0.40;0.40;;;13.40;99.90;14.90;101688.00;;;;4997589;28;20181;-75
2022/10/31 08:40:41;;;;;;;0.50;0.50;;;13.60;99.90;15.60;101692.00;;;;4998024;28;20217;-73
2022/10/31 08:43:39;;;;;;;0.60;0.60;;;14.00;99.90;16.00;101642.00;;;;5013431;28;20278;-72
2022/10/31 08:46:16;;;;;;;0.50;0.50;;;14.40;99.90;16.10;101671.00;;;;5013586;28;20654;-72
2022/10/31 08:48:42;;;;;;;0.50;0.50;;;14.60;99.90;15.80;101660.00;;;;5030613;28;20269;-73
2022/10/31 08:51:09;;;;;;;1.33;1.23;;;14.60;99.90;15.40;101646.00;;;;5033623;28;20183;-72
2022/10/31 08:53:50;;;;;;;0.40;0.40;;;14.60;99.90;15.20;101646.00;;;;5034459;28;20191;-71
2022/10/31 08:56:15;;;;;;;0.40;0.40;;;14.30;99.90;15.20;101651.00;;;;5011105;28;20195;-72
2022/10/31 08:58:47;;;;;;;1.33;1.27;;;14.30;99.90;15.60;101637.00;;;;5033119;28;20207;-72
2022/10/31 09:01:18;;;;;;;1.57;1.57;;;14.50;99.90;15.00;101616.00;;;;5013394;28;20213;-71
2022/10/31 09:03:52;;;;;;;3.20;1.50;;;14.40;99.90;15.10;101626.00;;;;5013542;28;20182;-71
2022/10/31 09:06:29;;;;;;;0.67;0.67;;;14.30;99.90;15.60;101636.00;;;;5013717;28;20651;-71
2022/10/31 09:08:55;;;;;;;0.50;0.50;;;14.40;99.90;14.70;101564.00;;;;5013666;28;20185;-70
2022/10/31 09:12:07;;;;;;;1.50;1.43;;;14.20;99.90;14.70;101629.00;;;;5013479;28;20709;-71
2022/10/31 09:14:33;;;;;;;0.50;0.50;;;14.00;99.90;14.70;101616.00;;;;5013883;28;20171;-71
2022/10/31 09:17:02;;;;;;;0.47;0.47;;;13.90;99.90;14.50;101621.00;;;;5012456;28;20537;-71
2022/10/31 09:19:33;;;;;;;0.40;0.40;;;13.90;99.90;14.90;101590.00;;;;5012417;28;20206;-70
2022/10/31 09:22:02;;;;;;;0.40;0.40;;;14.00;99.90;15.20;101609.00;;;;5013355;28;20207;-71
2022/10/31 09:24:31;;;;;;;0.40;0.40;;;14.30;99.90;15.80;101616.00;;;;5012819;28;20211;-71
2022/10/31 09:27:01;;;;;;;0.73;0.73;;;14.50;99.90;16.30;101606.00;;;;5013511;28;20204;-71
2022/10/31 09:29:35;;;;;;;1.73;1.73;;;14.70;99.90;16.50;101621.00;;;;5014320;28;20193;-71
2022/10/31 09:32:01;;;;;;;0.97;0.90;;;15.00;99.90;16.20;101607.00;;;;5013084;28;20234;-71
2022/10/31 09:34:27;;;;;;;3.07;2.87;;;15.20;99.90;16.40;101598.00;;;;5012951;28;20180;-71
2022/10/31 09:36:53;;;;;;;0.50;0.50;;;15.10;99.90;16.50;101625.00;;;;5013031;28;20199;-71
2022/10/31 09:39:19;;;;;;;0.50;0.50;;;15.20;99.90;16.50;101600.00;;;;5014075;28;20208;-71
2022/10/31 09:42:06;;;;;;;11.10;4.00;;;15.10;99.90;15.90;101603.00;;;;4996624;28;20239;-72
2022/10/31 09:45:12;;;;;;;0.50;0.50;;;15.10;99.90;16.20;101609.00;;;;5014150;28;20210;-72
2022/10/31 09:48:27;;;;;;;0.50;0.50;;;15.00;99.90;16.30;101626.00;;;;5038668;28;20657;-71
2022/10/31 09:51:37;;;;;;;1.33;1.33;;;15.10;99.90;16.30;101612.00;;;;5013953;28;20181;-71
2022/10/31 09:54:31;;;;;;;1.27;1.17;;;15.20;99.90;16.30;101601.00;;;;5029417;28;20277;-71
2022/10/31 09:57:00;;;;;;;1.17;1.17;;;15.20;99.90;15.20;101571.00;;;;5012579;28;20654;-70
2022/10/31 09:59:39;;;;;;;0.50;0.50;;;14.90;99.90;15.80;101534.00;;;;5012587;28;20271;-71
2022/10/31 10:02:14;;;;;;;0.50;0.50;;;14.80;99.90;16.40;101585.00;;;;5012499;28;20697;-70
2022/10/31 10:05:03;;;;;;;0.57;0.57;;;15.00;99.90;16.30;101599.00;;;;5012725;28;20619;-71
2022/10/31 10:07:32;;;;;;;0.40;0.40;;;15.00;99.90;16.30;101594.00;;;;5012532;28;20189;-70
2022/10/31 10:10:14;;;;;;;2.33;2.17;;;15.10;99.90;16.20;101592.00;;;;5013551;28;20248;-70
2022/10/31 10:13:20;;;;;;;0.50;0.50;;;15.00;99.90;16.40;101583.00;;;;5013853;28;20167;-71
2022/10/31 10:16:12;;;;;;;1.33;1.33;;;15.20;99.90;15.80;101590.00;;;;5012442;28;20260;-71
2022/10/31 10:19:12;;;;;;;0.67;0.67;;;15.10;99.90;16.30;101586.00;;;;5013437;28;20296;-70
2022/10/31 10:33:35;;;;;;;0.20;0.20;;;14.30;99.90;14.90;101578.00;;;;5070673;28;20601;-70
2022/10/31 10:36:19;;;;;;;1.53;0.97;;;14.30;99.90;15.70;101579.00;;;;5066064;28;20279;-69
2022/10/31 10:38:58;;;;;;;0.20;0.20;;;14.60;99.90;15.50;101571.00;;;;5065673;28;20178;-69
2022/10/31 10:41:31;;;;;;;0.40;0.40;;;14.80;99.90;15.70;101543.00;;;;5065730;28;20704;-69
2022/10/31 10:43:57;;;;;;;3.93;3.73;;;14.90;99.90;15.70;101546.00;;;;5050614;28;20163;-70
2022/10/31 10:49:50;;;;;;;0.83;0.83;;;15.20;99.90;16.70;101521.00;;;;5063392;28;20194;-70
2022/10/31 10:52:48;;;;;;;2.43;2.23;;;15.60;99.90;17.10;101514.00;;;;5048762;28;20272;-70
2022/10/31 10:55:45;;;;;;;0.50;0.50;;;15.90;99.90;16.50;101453.00;;;;5048284;28;20652;-70
2022/10/31 10:58:14;;;;;;;3.67;1.90;;;16.10;99.90;16.80;101487.00;;;;5063345;28;20664;-70
2022/10/31 11:00:46;;;;;;;2.00;1.90;;;16.10;99.90;17.30;101481.00;;;;5045178;28;20205;-72
2022/10/31 11:03:14;;;;;;;0.50;0.50;;;16.40;99.90;17.90;101439.00;;;;5029211;28;20193;-69
2022/10/31 11:06:01;;;;;;;2.07;1.97;;;16.70;99.90;18.10;101457.00;;;;5034265;28;20653;-69
2022/10/31 11:08:31;;;;;;;1.57;1.43;;;16.90;99.90;17.50;101457.00;;;;5061196;28;20185;-69
2022/10/31 11:11:03;;;;;;;0.37;0.37;;;16.90;99.90;17.20;101471.00;;;;5053918;28;20187;-69
2022/10/31 11:13:34;;;;;;;2.60;2.43;;;16.60;99.90;18.10;101452.00;;;;5049122;28;20169;-69
2022/10/31 11:16:15;;;;;;;1.47;1.40;;;16.80;99.90;17.60;101468.00;;;;5048562;28;20273;-69
2022/10/31 11:18:47;;;;;;;3.53;2.40;;;16.80;99.90;17.20;101452.00;;;;5048499;28;20667;-69
2022/10/31 11:21:28;;;;;;;1.67;1.57;;;16.80;99.90;16.60;101450.00;;;;5048091;28;20706;-69
2022/10/31 11:24:13;;;;;;;1.50;1.10;;;16.30;99.90;17.40;101410.00;;;;5048619;28;20172;-69
2022/10/31 11:26:41;;;;;;;2.87;2.10;;;16.40;99.90;17.40;101434.00;;;;5048653;28;20196;-69
2022/10/31 11:29:16;;;;;;;2.20;1.60;;;16.60;99.90;17.10;101429.00;;;;5048372;28;20240;-69
2022/10/31 11:31:51;;;;;;;0.73;0.73;;;16.50;99.90;17.70;101383.00;;;;5037763;28;20228;-69
2022/10/31 11:34:44;;;;;;;1.70;1.60;;;16.60;99.90;16.60;101413.00;;;;5064954;28;20185;-69
2022/10/31 11:37:32;;;;;;;3.33;1.57;;;16.30;99.90;17.70;101403.00;;;;5064359;28;20185;-69
2022/10/31 11:40:25;;;;;;;6.80;1.23;;;16.50;99.90;17.20;101398.00;;;;5064406;28;20191;-69
2022/10/31 11:42:58;;;;;;;4.80;3.43;;;16.50;99.90;17.30;101389.00;;;;5045165;28;20284;-69
2022/10/31 11:45:51;;;;;;;3.17;2.47;;;16.40;99.90;16.50;101344.00;;;;5051485;28;20180;-69
2022/10/31 11:48:57;;;;;;;2.10;2.00;;;16.30;99.90;17.10;101386.00;;;;5050970;28;20596;-69
2022/10/31 11:52:07;;;;;;;2.20;2.10;;;16.10;99.90;17.10;101338.00;;;;5013674;28;20267;-69
2022/10/31 11:55:11;;;;;;;0.40;0.40;;;16.40;99.90;17.20;101381.00;;;;5051184;28;20194;-70